Time;durP1;ratioP1;P1;durP2;ratioP2;P2;SDS_P1;SDS_P2;PMS_P1;PMS_P2;Temp;Humidity;BMP_temperature;BMP_pressure;BME280_temperature;BME280_humidity;BME280_pressure;Samples;Min_cycle;Max_cycle;Signal;HPM_P1;HPM_P2
2023/02/05 00:01:44;;;;;;;43.50;20.67;;;6.00;99.90;;;;;;2614704;54;20660;-77
2023/02/05 00:07:31;;;;;;;28.03;19.40;;;5.90;99.90;;;;;;2617011;39;20521;-76
2023/02/05 00:13:19;;;;;;;33.37;19.27;;;6.00;99.90;;;;;;2614039;54;20660;-77
2023/02/05 00:19:07;;;;;;;33.97;20.23;;;6.10;99.90;;;;;;2615299;39;20548;-76
2023/02/05 00:24:55;;;;;;;32.50;19.50;;;6.10;99.90;;;;;;2615829;54;20162;-77
2023/02/05 00:34:54;;;;;;;32.73;19.43;;;6.10;99.90;;;;;;2615388;54;20522;-78
2023/02/05 00:40:42;;;;;;;38.17;20.27;;;6.10;99.90;;;;;;2615941;54;20419;-79
2023/02/05 00:46:30;;;;;;;43.87;20.97;;;6.10;99.90;;;;;;2613310;54;20370;-78
2023/02/05 00:52:18;;;;;;;41.63;19.17;;;6.20;99.90;;;;;;2616004;54;20243;-77
2023/02/05 00:58:06;;;;;;;40.53;22.53;;;6.20;99.90;;;;;;2613344;54;20122;-77
2023/02/05 01:03:54;;;;;;;40.80;19.43;;;6.20;99.90;;;;;;2613583;54;20269;-77
2023/02/05 01:09:42;;;;;;;36.33;19.07;;;6.20;99.90;;;;;;2615872;54;20240;-77
2023/02/05 01:15:30;;;;;;;36.00;17.57;;;6.20;99.90;;;;;;2614550;54;20133;-77
2023/02/05 01:21:17;;;;;;;27.70;17.03;;;6.20;99.90;;;;;;2613980;54;21140;-77
2023/02/05 01:27:05;;;;;;;32.80;17.67;;;6.20;99.90;;;;;;2613874;54;20134;-78
2023/02/05 01:30:22;;;;;;;34.60;16.80;;;6.10;99.90;;;;;;2614350;47;20416;-77
2023/02/05 01:32:48;;;;;;;50.97;20.50;;;6.10;99.90;;;;;;2613598;47;20174;-76
2023/02/05 01:38:36;;;;;;;41.93;19.10;;;6.20;99.90;;;;;;2616126;54;20206;-77
2023/02/05 01:44:25;;;;;;;40.43;17.33;;;6.10;99.90;;;;;;2613806;54;20122;-77
2023/02/05 01:50:14;;;;;;;33.93;17.63;;;6.00;99.90;;;;;;2613946;54;20468;-77
2023/02/05 01:56:17;;;;;;;31.00;16.87;;;6.00;99.90;;;;;;2614575;54;20411;-77
2023/02/05 02:02:06;;;;;;;33.87;18.23;;;6.10;99.90;;;;;;2613459;54;20438;-77
2023/02/05 02:07:53;;;;;;;32.87;16.67;;;6.10;99.90;;;;;;2617760;39;20747;-77
2023/02/05 02:13:44;;;;;;;31.33;17.80;;;6.10;99.90;;;;;;2613474;54;20129;-77
2023/02/05 02:30:22;;;;;;;30.73;14.00;;;6.40;99.90;;;;;;2614816;54;20418;-77
2023/02/05 02:45:51;;;;;;;32.87;14.03;;;6.40;99.90;;;;;;2613738;54;20426;-78
2023/02/05 02:51:42;;;;;;;42.03;15.90;;;6.40;99.90;;;;;;2614673;54;20386;-77
2023/02/05 02:57:31;;;;;;;31.27;14.53;;;6.40;99.90;;;;;;2615278;54;20391;-77
2023/02/05 03:03:23;;;;;;;29.87;14.17;;;6.40;99.90;;;;;;2613395;54;20407;-77
2023/02/05 03:09:14;;;;;;;35.67;16.43;;;6.40;99.90;;;;;;2616436;54;20941;-76
2023/02/05 03:15:02;;;;;;;36.37;15.73;;;6.40;99.90;;;;;;2614660;54;20407;-78
2023/02/05 03:20:56;;;;;;;30.80;18.30;;;6.40;99.90;;;;;;2614104;54;20391;-77
2023/02/05 03:26:44;;;;;;;30.83;15.30;;;6.30;99.90;;;;;;2614488;54;20423;-77
2023/02/05 03:46:06;;;;;;;40.87;19.50;;;6.40;99.90;;;;;;2613457;54;20464;-77
2023/02/05 03:58:13;;;;;;;25.70;17.13;;;6.50;99.90;;;;;;2612827;54;21001;-77
2023/02/05 04:04:01;;;;;;;39.70;18.03;;;6.50;99.90;;;;;;2614845;54;21014;-78
2023/02/05 04:09:49;;;;;;;35.07;16.40;;;6.50;99.90;;;;;;2615559;54;20130;-78
2023/02/05 04:15:37;;;;;;;38.33;18.43;;;6.60;99.90;;;;;;2613860;39;20539;-78
2023/02/05 04:21:24;;;;;;;45.17;22.80;;;6.70;99.90;;;;;;2615148;54;20129;-78
2023/02/05 04:27:12;;;;;;;42.63;20.20;;;6.70;99.90;;;;;;2613053;54;20243;-78
2023/02/05 04:33:00;;;;;;;36.37;20.50;;;6.80;99.90;;;;;;2612797;54;20189;-78
2023/02/05 04:38:48;;;;;;;38.93;20.03;;;6.90;99.90;;;;;;2616148;54;20122;-76
2023/02/05 04:44:36;;;;;;;42.40;21.23;;;6.90;99.90;;;;;;2612880;54;20146;-77
2023/02/05 04:50:24;;;;;;;49.77;21.50;;;6.80;99.90;;;;;;2614807;54;20161;-77
2023/02/05 04:56:14;;;;;;;50.13;24.67;;;6.80;99.90;;;;;;2611737;54;20133;-76
2023/02/05 05:02:02;;;;;;;43.50;22.40;;;6.80;99.90;;;;;;2612305;54;20414;-76
2023/02/05 05:07:49;;;;;;;47.67;24.27;;;6.80;99.90;;;;;;2615442;54;20162;-77
2023/02/05 05:13:37;;;;;;;42.60;23.70;;;6.70;99.90;;;;;;2612837;54;20151;-77
2023/02/05 05:19:25;;;;;;;41.30;23.67;;;6.80;99.90;;;;;;2612409;54;20398;-77
2023/02/05 05:25:12;;;;;;;46.63;27.63;;;6.70;99.90;;;;;;2614639;54;20262;-76
2023/02/05 05:35:12;;;;;;;69.87;31.17;;;6.70;99.90;;;;;;2612941;54;21095;-77
2023/02/05 05:47:06;;;;;;;60.23;29.70;;;6.80;99.90;;;;;;2615291;54;20916;-76
2023/02/05 05:52:54;;;;;;;55.47;32.40;;;6.80;99.90;;;;;;2615838;54;20254;-78
2023/02/05 05:58:42;;;;;;;63.37;32.00;;;6.70;99.90;;;;;;2614590;54;20151;-76
2023/02/05 06:04:30;;;;;;;71.33;29.80;;;6.80;99.90;;;;;;2614209;54;20439;-75
2023/02/05 06:10:18;;;;;;;63.93;36.27;;;6.80;99.90;;;;;;2615194;54;20430;-77
2023/02/05 06:16:06;;;;;;;74.37;34.90;;;6.90;99.90;;;;;;2614199;54;20134;-76
2023/02/05 06:21:54;;;;;;;73.20;36.20;;;6.80;99.90;;;;;;2615041;54;20410;-75
2023/02/05 06:27:42;;;;;;;69.30;35.90;;;6.90;99.90;;;;;;2615270;54;20138;-75
2023/02/05 06:30:42;;;;;;;73.83;37.07;;;6.80;99.90;;;;;;2612976;47;20416;-76
2023/02/05 06:33:07;;;;;;;71.60;35.67;;;6.80;99.90;;;;;;2613802;54;20411;-75
2023/02/05 06:38:55;;;;;;;73.83;35.10;;;6.80;99.90;;;;;;2615307;39;20634;-76
2023/02/05 06:44:43;;;;;;;78.83;36.73;;;6.90;99.90;;;;;;2613569;54;20575;-76
2023/02/05 06:50:32;;;;;;;75.60;35.40;;;7.00;99.90;;;;;;2613067;54;20366;-77
2023/02/05 06:56:19;;;;;;;71.73;35.50;;;7.00;99.90;;;;;;2616050;54;20700;-77
2023/02/05 07:02:12;;;;;;;61.53;35.53;;;7.00;99.90;;;;;;2616061;39;20540;-76
2023/02/05 07:08:00;;;;;;;74.20;36.60;;;7.00;99.90;;;;;;2616877;39;20877;-77
2023/02/05 07:13:48;;;;;;;70.40;35.50;;;7.00;99.90;;;;;;2613549;54;20391;-76
2023/02/05 07:19:36;;;;;;;63.97;32.47;;;7.00;99.90;;;;;;2614146;54;20138;-77
2023/02/05 07:25:26;;;;;;;66.70;34.70;;;7.00;99.90;;;;;;2615550;39;20469;-78
2023/02/05 07:35:13;;;;;;;55.97;29.67;;;7.00;99.90;;;;;;2615461;54;20399;-77
2023/02/05 07:41:05;;;;;;;56.90;32.37;;;7.00;99.90;;;;;;2615598;54;20411;-77
2023/02/05 07:46:53;;;;;;;50.23;32.60;;;6.90;99.90;;;;;;2615132;54;20391;-77
2023/02/05 07:52:40;;;;;;;56.60;29.77;;;6.90;99.90;;;;;;2614551;54;20134;-77
2023/02/05 07:58:29;;;;;;;44.97;26.77;;;6.90;99.90;;;;;;2615752;54;20162;-76
2023/02/05 08:04:17;;;;;;;46.43;29.47;;;6.90;99.90;;;;;;2614994;54;20488;-77
2023/02/05 08:10:05;;;;;;;39.00;23.73;;;6.80;99.90;;;;;;2615819;54;20952;-77
2023/02/05 08:15:53;;;;;;;33.97;17.57;;;6.70;99.90;;;;;;2615845;54;20396;-76
2023/02/05 08:21:42;;;;;;;39.13;23.10;;;6.70;99.90;;;;;;2615909;54;20504;-77
2023/02/05 08:27:31;;;;;;;25.33;16.77;;;6.80;99.90;;;;;;2614686;54;20435;-77
2023/02/05 08:30:42;;;;;;;19.83;11.57;;;6.80;99.90;;;;;;2615489;54;20439;-77
2023/02/05 08:33:08;;;;;;;15.93;12.07;;;6.80;99.90;;;;;;2614191;47;20558;-76
2023/02/05 08:38:56;;;;;;;15.23;8.77;;;6.60;99.90;;;;;;2615115;54;20659;-76
2023/02/05 08:44:44;;;;;;;10.47;7.20;;;6.50;99.90;;;;;;2613749;54;20131;-77
2023/02/05 08:50:32;;;;;;;9.37;5.30;;;6.40;99.90;;;;;;2615234;54;20394;-77
2023/02/05 08:56:20;;;;;;;7.03;3.40;;;6.30;99.90;;;;;;2615443;54;20146;-77
2023/02/05 09:02:12;;;;;;;5.90;3.50;;;6.20;99.90;;;;;;2615081;54;20161;-77
2023/02/05 09:08:00;;;;;;;3.33;2.43;;;6.30;99.90;;;;;;2615318;54;20423;-77
2023/02/05 09:13:49;;;;;;;4.80;3.10;;;6.30;99.90;;;;;;2614707;54;20765;-76
2023/02/05 09:19:38;;;;;;;4.47;3.07;;;6.30;99.90;;;;;;2614427;54;21004;-76
2023/02/05 09:25:28;;;;;;;5.27;3.33;;;6.20;99.90;;;;;;2614814;54;20394;-76
2023/02/05 09:35:18;;;;;;;4.80;3.60;;;6.20;99.90;;;;;;2613820;54;20418;-76
2023/02/05 09:41:12;;;;;;;4.80;3.97;;;6.20;99.90;;;;;;2615844;54;20427;-77
2023/02/05 09:53:31;;;;;;;4.87;4.30;;;6.30;99.90;;;;;;2615855;54;20963;-76
2023/02/05 09:59:23;;;;;;;7.20;3.60;;;6.40;99.90;;;;;;2614705;54;20941;-76
2023/02/05 10:05:14;;;;;;;7.93;5.17;;;6.40;99.90;;;;;;2614554;54;20402;-77
2023/02/05 10:11:08;;;;;;;4.90;3.20;;;6.30;99.90;;;;;;2614765;54;20432;-76
2023/02/05 10:17:21;;;;;;;4.30;2.67;;;6.30;99.90;;;;;;2615055;54;20418;-78
2023/02/05 10:36:07;;;;;;;6.60;4.20;;;6.30;99.90;;;;;;2615041;54;20936;-77
2023/02/05 10:54:58;;;;;;;15.17;4.10;;;6.50;99.90;;;;;;2612529;54;20510;-77
2023/02/05 11:00:49;;;;;;;9.57;4.00;;;6.60;99.90;;;;;;2615649;54;20454;-82
2023/02/05 11:03:52;;;;;;;14.93;5.40;;;6.50;99.90;;;;;;2614279;47;20415;-82
2023/02/05 11:06:20;;;;;;;5.17;3.20;;;6.50;99.90;;;;;;2615201;54;20411;-78
2023/02/05 11:12:30;;;;;;;5.23;3.10;;;6.40;99.90;;;;;;2615109;54;20371;-79
2023/02/05 11:18:23;;;;;;;8.30;3.00;;;6.30;99.90;;;;;;2615029;54;20399;-78
2023/02/05 11:30:45;;;;;;;12.53;3.73;;;6.30;99.90;;;;;;2616088;54;20447;-79
2023/02/05 11:49:40;;;;;;;6.40;3.27;;;6.30;99.90;;;;;;2616106;54;20419;-77
2023/02/05 11:55:32;;;;;;;5.23;2.87;;;6.30;99.90;;;;;;2616046;54;20414;-79
2023/02/05 12:01:27;;;;;;;5.30;2.90;;;6.30;99.90;;;;;;2615422;54;20379;-79
2023/02/05 12:07:20;;;;;;;7.60;2.80;;;6.30;99.90;;;;;;2613648;54;20387;-77
2023/02/05 12:16:56;;;;;;;4.93;3.07;;;6.30;99.90;;;;;;2613111;54;20526;-78
2023/02/05 13:09:51;;;;;;;10.00;4.67;;;6.00;99.90;;;;;;2613970;54;20954;-79
2023/02/05 13:15:42;;;;;;;9.40;5.87;;;6.00;99.90;;;;;;2614731;54;20424;-80
2023/02/05 13:33:55;;;;;;;12.03;5.30;;;6.10;99.90;;;;;;2613840;54;20402;-78
2023/02/05 13:50:39;;;;;;;7.80;5.63;;;6.10;99.90;;;;;;2614733;54;20391;-77
2023/02/05 14:09:59;;;;;;;9.93;6.03;;;6.20;99.90;;;;;;2614511;54;20417;-77
2023/02/05 14:15:47;;;;;;;11.30;5.60;;;6.00;99.90;;;;;;2612827;54;21072;-79
2023/02/05 14:21:34;;;;;;;9.20;4.90;;;6.20;99.90;;;;;;2612955;54;20697;-78
2023/02/05 14:33:48;;;;;;;8.83;4.73;;;6.20;99.90;;;;;;2611094;54;20398;-78
2023/02/05 14:39:35;;;;;;;10.47;4.63;;;6.40;99.90;;;;;;2615179;39;20613;-79
2023/02/05 14:45:26;;;;;;;9.53;3.67;;;6.60;99.90;;;;;;2614793;54;20452;-79
2023/02/05 14:57:53;;;;;;;18.53;3.90;;;6.80;99.90;;;;;;2616291;39;20495;-79
2023/02/05 15:03:41;;;;;;;18.10;7.87;;;6.80;99.90;;;;;;2615927;54;20391;-78
2023/02/05 15:09:46;;;;;;;13.40;3.80;;;6.80;99.90;;;;;;2616202;54;20399;-78
2023/02/05 15:15:35;;;;;;;8.80;4.10;;;6.80;99.90;;;;;;2616683;54;20400;-78
2023/02/05 15:21:23;;;;;;;10.70;4.17;;;6.90;99.90;;;;;;2616705;54;20375;-79
2023/02/05 15:27:23;;;;;;;13.00;4.37;;;6.90;99.90;;;;;;2616737;54;20189;-78
2023/02/05 15:42:56;;;;;;;16.97;4.77;;;6.90;99.90;;;;;;2616523;54;20390;-78
2023/02/05 15:48:44;;;;;;;10.07;4.77;;;6.80;99.90;;;;;;2616474;54;20411;-79
2023/02/05 15:54:34;;;;;;;14.90;6.33;;;6.60;99.90;;;;;;2616812;54;20150;-78
2023/02/05 16:00:28;;;;;;;15.50;4.40;;;6.50;99.90;;;;;;2617294;39;21138;-78
2023/02/05 16:06:24;;;;;;;8.70;3.80;;;6.50;99.90;;;;;;2616942;54;20395;-77
2023/02/05 16:12:13;;;;;;;8.07;4.43;;;6.50;99.90;;;;;;2616369;54;20399;-78
2023/02/05 16:18:05;;;;;;;12.93;5.50;;;6.50;99.90;;;;;;2617095;54;20411;-77
2023/02/05 16:23:59;;;;;;;10.57;4.97;;;6.40;99.90;;;;;;2616643;54;20379;-77
2023/02/05 16:29:51;;;;;;;9.70;4.20;;;6.30;99.90;;;;;;2616581;46;20390;-79
2023/02/05 16:35:43;;;;;;;29.20;8.57;;;6.10;99.90;;;;;;2616795;54;20416;-77
2023/02/05 16:41:35;;;;;;;30.70;14.73;;;6.20;99.90;;;;;;2617298;46;20430;-79
2023/02/05 16:47:22;;;;;;;26.10;10.33;;;6.20;99.90;;;;;;2616787;54;20391;-78
2023/02/05 16:53:20;;;;;;;18.37;9.37;;;6.20;99.90;;;;;;2616256;54;20153;-77
2023/02/05 17:05:41;;;;;;;21.37;8.23;;;5.90;99.90;;;;;;2616553;54;20978;-78
2023/02/05 17:24:25;;;;;;;22.53;5.67;;;6.20;99.90;;;;;;2616030;54;20383;-76
2023/02/05 17:30:16;;;;;;;13.87;6.33;;;6.30;99.90;;;;;;2616643;54;20419;-79
2023/02/05 17:36:04;;;;;;;16.97;6.60;;;6.20;99.90;;;;;;2616258;54;20427;-77
2023/02/05 17:47:58;;;;;;;23.87;6.40;;;6.20;99.90;;;;;;2616534;54;20491;-77
2023/02/05 17:53:47;;;;;;;16.57;5.60;;;6.20;99.90;;;;;;2616426;39;20193;-78
2023/02/05 17:59:34;;;;;;;25.07;6.53;;;6.20;99.90;;;;;;2616365;54;20362;-78
2023/02/05 18:05:22;;;;;;;19.03;9.43;;;6.30;99.90;;;;;;2616073;54;20737;-80
2023/02/05 18:11:10;;;;;;;19.53;6.07;;;6.30;99.90;;;;;;2615932;54;20362;-79
2023/02/05 18:16:58;;;;;;;15.60;6.07;;;6.30;99.90;;;;;;2616260;54;20126;-78
2023/02/05 18:22:47;;;;;;;26.43;7.70;;;6.20;99.90;;;;;;2615948;54;20235;-78
2023/02/05 18:28:35;;;;;;;21.17;5.80;;;6.20;99.90;;;;;;2615481;54;20453;-79
2023/02/05 18:34:23;;;;;;;29.90;7.73;;;6.30;99.90;;;;;;2614105;54;20418;-78
2023/02/05 18:37:48;;;;;;;20.87;6.20;;;6.20;99.90;;;;;;2614094;47;20419;-78
2023/02/05 18:40:14;;;;;;;19.20;6.40;;;6.20;99.90;;;;;;2614744;47;20704;-78
2023/02/05 18:46:10;;;;;;;23.33;5.53;;;6.10;99.90;;;;;;2615555;54;20419;-78
2023/02/05 18:51:58;;;;;;;19.43;9.03;;;6.00;99.90;;;;;;2615824;54;20430;-78
2023/02/05 18:57:46;;;;;;;18.07;5.33;;;5.90;99.90;;;;;;2616097;54;20351;-77
2023/02/05 19:03:34;;;;;;;14.03;5.83;;;5.90;99.90;;;;;;2616746;54;20406;-78
2023/02/05 19:09:23;;;;;;;19.20;6.97;;;5.90;99.90;;;;;;2616397;54;20130;-78
2023/02/05 19:15:10;;;;;;;20.87;5.63;;;6.00;99.90;;;;;;2616395;54;20410;-78
2023/02/05 19:21:06;;;;;;;17.83;5.77;;;6.00;99.90;;;;;;2614393;54;20150;-78
2023/02/05 19:26:57;;;;;;;21.80;6.27;;;6.00;99.90;;;;;;2615673;54;20395;-79
2023/02/05 19:32:45;;;;;;;18.47;7.80;;;5.90;99.90;;;;;;2615687;54;20378;-80
2023/02/05 19:42:24;;;;;;;20.43;6.17;;;5.90;99.90;;;;;;2616385;54;20431;-78
2023/02/05 19:48:13;;;;;;;26.03;7.20;;;5.90;99.90;;;;;;2615489;54;20945;-77
2023/02/05 19:54:05;;;;;;;19.33;5.50;;;5.80;99.90;;;;;;2615764;54;20539;-78
2023/02/05 19:59:52;;;;;;;22.37;6.60;;;5.80;99.90;;;;;;2616065;54;20367;-77
2023/02/05 20:05:40;;;;;;;19.20;5.60;;;5.80;99.90;;;;;;2615902;54;20169;-78
2023/02/05 20:11:31;;;;;;;17.77;5.07;;;5.80;99.90;;;;;;2616702;54;20147;-78
2023/02/05 20:17:19;;;;;;;27.27;6.73;;;5.70;99.90;;;;;;2615271;54;20474;-79
2023/02/05 20:23:07;;;;;;;14.93;5.43;;;5.60;99.90;;;;;;2616127;54;20181;-78
2023/02/05 20:35:02;;;;;;;21.87;6.67;;;5.50;99.90;;;;;;2616381;54;20399;-78
2023/02/05 20:41:16;;;;;;;24.27;6.80;;;5.50;99.90;;;;;;2615159;54;20171;-79
2023/02/05 20:47:07;;;;;;;22.10;7.27;;;5.20;99.90;;;;;;2614949;54;20916;-77
2023/02/05 20:52:54;;;;;;;34.87;8.13;;;4.80;99.90;;;;;;2614664;54;20417;-78
2023/02/05 20:58:42;;;;;;;23.00;7.47;;;4.50;99.90;;;;;;2615726;39;20617;-79
2023/02/05 21:04:30;;;;;;;15.23;6.67;;;4.30;99.90;;;;;;2615556;39;20486;-77
2023/02/05 21:10:18;;;;;;;33.53;10.77;;;4.20;99.90;;;;;;2615011;54;20383;-78
2023/02/05 21:16:05;;;;;;;28.17;7.37;;;4.00;99.90;;;;;;2616344;54;20367;-77
2023/02/05 21:21:53;;;;;;;22.23;7.33;;;3.90;99.90;;;;;;2616528;54;20375;-78
2023/02/05 21:27:42;;;;;;;23.83;7.90;;;3.50;99.90;;;;;;2615844;54;20154;-77
2023/02/05 21:33:29;;;;;;;24.23;7.07;;;3.30;99.90;;;;;;2615348;54;20410;-77
2023/02/05 21:42:39;;;;;;;21.47;7.63;;;3.30;99.90;;;;;;2614969;54;20985;-79
2023/02/05 21:48:27;;;;;;;24.63;8.03;;;3.00;99.90;;;;;;2616104;54;20154;-76
2023/02/05 21:54:15;;;;;;;36.17;8.87;;;2.90;99.90;;;;;;2616301;54;20375;-76
2023/02/05 22:00:04;;;;;;;29.10;8.93;;;2.80;99.90;;;;;;2616965;54;20695;-77
2023/02/05 22:05:51;;;;;;;23.27;7.87;;;2.70;99.90;;;;;;2615485;54;20865;-77
2023/02/05 22:11:39;;;;;;;32.60;6.73;;;2.50;99.90;;;;;;2615879;54;20663;-76
2023/02/05 22:17:27;;;;;;;24.17;8.07;;;2.40;99.90;;;;;;2616508;54;20391;-78
2023/02/05 22:23:16;;;;;;;24.53;5.80;;;2.20;99.90;;;;;;2616446;54;20644;-76
2023/02/05 22:29:05;;;;;;;16.80;7.03;;;2.10;99.90;;;;;;2617966;54;20371;-78
2023/02/05 22:34:53;;;;;;;19.07;6.80;;;1.80;99.90;;;;;;2617450;54;20441;-77
2023/02/05 22:38:05;;;;;;;16.97;6.80;;;1.80;99.90;;;;;;2617320;46;20454;-77
2023/02/05 22:40:32;;;;;;;26.77;8.40;;;1.60;99.90;;;;;;2617517;54;20147;-76
2023/02/05 22:46:22;;;;;;;28.30;7.27;;;1.60;99.90;;;;;;2617660;54;20419;-76
2023/02/05 22:52:10;;;;;;;22.10;7.60;;;1.40;99.90;;;;;;2617533;54;20387;-76
2023/02/05 22:57:58;;;;;;;12.70;5.83;;;1.30;99.90;;;;;;2617431;54;20254;-77
2023/02/05 23:03:48;;;;;;;13.27;6.30;;;1.10;99.90;;;;;;2613283;54;20699;-76
2023/02/05 23:06:51;;;;;;;13.20;6.17;;;1.10;99.90;;;;;;2614833;46;21042;-76
2023/02/05 23:09:17;;;;;;;29.33;6.90;;;1.00;99.90;;;;;;2614516;54;20521;-76
2023/02/05 23:15:05;;;;;;;18.07;6.20;;;0.80;99.90;;;;;;2615634;54;20508;-77
2023/02/05 23:20:52;;;;;;;30.33;6.57;;;0.90;99.90;;;;;;2614961;39;20858;-77
2023/02/05 23:26:43;;;;;;;23.63;6.67;;;0.80;99.90;;;;;;2615672;39;20557;-77
2023/02/05 23:32:31;;;;;;;15.13;6.50;;;0.90;99.90;;;;;;2615203;54;20431;-79
2023/02/05 23:42:39;;;;;;;21.87;7.67;;;0.80;99.90;;;;;;2615781;54;20499;-78
2023/02/05 23:48:27;;;;;;;22.43;7.90;;;0.80;99.90;;;;;;2614802;54;20367;-77
2023/02/05 23:54:15;;;;;;;18.20;6.90;;;0.90;99.90;;;;;;2617224;39;20782;-77
